sensor_id;sensor_type;location;lat;lon;timestamp;temperature;humidity
52187;DHT22;38161;53.020;6.598;2023-11-21T00:01:42;8.80;99.90
52187;DHT22;38161;53.020;6.598;2023-11-21T00:04:08;8.80;99.90
52187;DHT22;38161;53.020;6.598;2023-11-21T00:06:34;8.80;99.90
52187;DHT22;38161;53.020;6.598;2023-11-21T00:09:00;8.70;99.90
52187;DHT22;38161;53.020;6.598;2023-11-21T00:11:26;8.70;99.90
52187;DHT22;38161;53.020;6.598;2023-11-21T00:13:52;8.70;99.90
52187;DHT22;38161;53.020;6.598;2023-11-21T00:16:25;8.70;99.90
52187;DHT22;38161;53.020;6.598;2023-11-21T00:18:51;8.70;99.90
52187;DHT22;38161;53.020;6.598;2023-11-21T00:21:17;8.60;99.90
52187;DHT22;38161;53.020;6.598;2023-11-21T00:23:43;8.60;99.90
52187;DHT22;38161;53.020;6.598;2023-11-21T00:26:09;8.50;99.90
52187;DHT22;38161;53.020;6.598;2023-11-21T00:28:35;8.60;99.90
52187;DHT22;38161;53.020;6.598;2023-11-21T00:31:01;8.60;99.90
52187;DHT22;38161;53.020;6.598;2023-11-21T00:33:27;8.50;99.90
52187;DHT22;38161;53.020;6.598;2023-11-21T00:35:53;8.50;99.90
52187;DHT22;38161;53.020;6.598;2023-11-21T00:38:19;8.50;99.90
52187;DHT22;38161;53.020;6.598;2023-11-21T00:40:46;8.50;99.90
52187;DHT22;38161;53.020;6.598;2023-11-21T00:43:12;8.50;99.90
52187;DHT22;38161;53.020;6.598;2023-11-21T00:45:37;8.40;99.90
52187;DHT22;38161;53.020;6.598;2023-11-21T00:48:05;8.40;99.90
52187;DHT22;38161;53.020;6.598;2023-11-21T00:50:31;8.40;99.90
52187;DHT22;38161;53.020;6.598;2023-11-21T00:52:57;8.40;99.90
52187;DHT22;38161;53.020;6.598;2023-11-21T00:55:23;8.40;99.90
52187;DHT22;38161;53.020;6.598;2023-11-21T00:57:51;8.40;99.90
52187;DHT22;38161;53.020;6.598;2023-11-21T01:00:18;8.40;99.90
52187;DHT22;38161;53.020;6.598;2023-11-21T01:02:44;8.40;99.90
52187;DHT22;38161;53.020;6.598;2023-11-21T01:05:10;8.40;99.90
52187;DHT22;38161;53.020;6.598;2023-11-21T01:07:36;8.40;99.90
52187;DHT22;38161;53.020;6.598;2023-11-21T01:10:03;8.40;99.90
52187;DHT22;38161;53.020;6.598;2023-11-21T01:12:34;8.40;99.90
52187;DHT22;38161;53.020;6.598;2023-11-21T01:15:01;8.40;99.90
52187;DHT22;38161;53.020;6.598;2023-11-21T01:17:26;8.40;99.90
52187;DHT22;38161;53.020;6.598;2023-11-21T01:19:52;8.40;99.90
52187;DHT22;38161;53.020;6.598;2023-11-21T01:22:18;8.50;99.90
52187;DHT22;38161;53.020;6.598;2023-11-21T01:24:51;8.50;99.90
52187;DHT22;38161;53.020;6.598;2023-11-21T01:27:17;8.50;99.90
52187;DHT22;38161;53.020;6.598;2023-11-21T01:29:44;8.50;99.90
52187;DHT22;38161;53.020;6.598;2023-11-21T01:32:10;8.50;99.90
52187;DHT22;38161;53.020;6.598;2023-11-21T01:34:36;8.50;99.90
52187;DHT22;38161;53.020;6.598;2023-11-21T01:37:04;8.50;99.90
52187;DHT22;38161;53.020;6.598;2023-11-21T01:39:31;8.50;99.90
52187;DHT22;38161;53.020;6.598;2023-11-21T01:41:57;8.50;99.90
52187;DHT22;38161;53.020;6.598;2023-11-21T01:44:26;8.60;99.90
52187;DHT22;38161;53.020;6.598;2023-11-21T01:46:52;8.50;99.90
52187;DHT22;38161;53.020;6.598;2023-11-21T01:49:19;8.60;99.90
52187;DHT22;38161;53.020;6.598;2023-11-21T01:51:48;8.60;99.90
52187;DHT22;38161;53.020;6.598;2023-11-21T01:54:19;8.60;99.90
52187;DHT22;38161;53.020;6.598;2023-11-21T01:56:47;8.60;99.90
52187;DHT22;38161;53.020;6.598;2023-11-21T01:59:17;8.60;99.90
52187;DHT22;38161;53.020;6.598;2023-11-21T02:01:44;8.60;99.90
52187;DHT22;38161;53.020;6.598;2023-11-21T02:04:10;8.60;99.90
52187;DHT22;38161;53.020;6.598;2023-11-21T02:06:36;8.60;99.90
52187;DHT22;38161;53.020;6.598;2023-11-21T02:09:02;8.60;99.90
52187;DHT22;38161;53.020;6.598;2023-11-21T02:11:30;8.60;99.90
52187;DHT22;38161;53.020;6.598;2023-11-21T02:13:59;8.60;99.90
52187;DHT22;38161;53.020;6.598;2023-11-21T02:16:26;8.60;99.90
52187;DHT22;38161;53.020;6.598;2023-11-21T02:18:53;8.70;99.90
52187;DHT22;38161;53.020;6.598;2023-11-21T02:21:20;8.70;99.90
52187;DHT22;38161;53.020;6.598;2023-11-21T02:23:46;8.70;99.90
52187;DHT22;38161;53.020;6.598;2023-11-21T02:26:12;8.70;99.90
52187;DHT22;38161;53.020;6.598;2023-11-21T02:28:40;8.70;99.90
52187;DHT22;38161;53.020;6.598;2023-11-21T02:31:06;8.70;99.90
52187;DHT22;38161;53.020;6.598;2023-11-21T02:33:33;8.70;99.90
52187;DHT22;38161;53.020;6.598;2023-11-21T02:36:00;8.70;99.90
52187;DHT22;38161;53.020;6.598;2023-11-21T02:38:26;8.70;99.90
52187;DHT22;38161;53.020;6.598;2023-11-21T02:40:52;8.70;99.90
52187;DHT22;38161;53.020;6.598;2023-11-21T02:43:19;8.70;99.90
52187;DHT22;38161;53.020;6.598;2023-11-21T02:45:44;8.70;99.90
52187;DHT22;38161;53.020;6.598;2023-11-21T02:48:10;8.70;99.90
52187;DHT22;38161;53.020;6.598;2023-11-21T02:50:36;8.70;99.90
52187;DHT22;38161;53.020;6.598;2023-11-21T02:53:04;8.80;99.90
52187;DHT22;38161;53.020;6.598;2023-11-21T02:55:31;8.80;99.90
52187;DHT22;38161;53.020;6.598;2023-11-21T02:58:01;8.80;99.90
52187;DHT22;38161;53.020;6.598;2023-11-21T03:00:26;8.80;99.90
52187;DHT22;38161;53.020;6.598;2023-11-21T03:02:53;8.80;99.90
52187;DHT22;38161;53.020;6.598;2023-11-21T03:05:27;8.80;99.90
52187;DHT22;38161;53.020;6.598;2023-11-21T03:07:54;8.80;99.90
52187;DHT22;38161;53.020;6.598;2023-11-21T03:10:20;8.80;99.90
52187;DHT22;38161;53.020;6.598;2023-11-21T03:12:46;8.80;99.90
52187;DHT22;38161;53.020;6.598;2023-11-21T03:15:12;8.80;99.90
52187;DHT22;38161;53.020;6.598;2023-11-21T03:17:38;8.90;99.90
52187;DHT22;38161;53.020;6.598;2023-11-21T03:20:05;8.80;99.90
52187;DHT22;38161;53.020;6.598;2023-11-21T03:22:36;8.90;99.90
52187;DHT22;38161;53.020;6.598;2023-11-21T03:25:03;8.90;99.90
52187;DHT22;38161;53.020;6.598;2023-11-21T03:27:30;8.90;99.90
52187;DHT22;38161;53.020;6.598;2023-11-21T03:29:56;8.90;99.90
52187;DHT22;38161;53.020;6.598;2023-11-21T03:32:22;8.90;99.90
52187;DHT22;38161;53.020;6.598;2023-11-21T03:34:56;8.90;99.90
52187;DHT22;38161;53.020;6.598;2023-11-21T03:37:23;8.90;99.90
52187;DHT22;38161;53.020;6.598;2023-11-21T03:39:50;8.90;99.90
52187;DHT22;38161;53.020;6.598;2023-11-21T03:42:16;8.90;99.90
52187;DHT22;38161;53.020;6.598;2023-11-21T03:44:42;8.90;99.90
52187;DHT22;38161;53.020;6.598;2023-11-21T03:47:08;8.90;99.90
52187;DHT22;38161;53.020;6.598;2023-11-21T03:49:34;8.90;99.90
52187;DHT22;38161;53.020;6.598;2023-11-21T03:52:00;8.90;99.90
52187;DHT22;38161;53.020;6.598;2023-11-21T03:54:37;8.90;99.90
52187;DHT22;38161;53.020;6.598;2023-11-21T03:57:03;9.00;99.90
52187;DHT22;38161;53.020;6.598;2023-11-21T03:59:29;8.90;99.90
52187;DHT22;38161;53.020;6.598;2023-11-21T04:01:56;8.90;99.90
52187;DHT22;38161;53.020;6.598;2023-11-21T04:04:22;9.00;99.90
52187;DHT22;38161;53.020;6.598;2023-11-21T04:06:48;9.00;99.90
52187;DHT22;38161;53.020;6.598;2023-11-21T04:09:14;9.00;99.90
52187;DHT22;38161;53.020;6.598;2023-11-21T04:11:40;9.00;99.90
52187;DHT22;38161;53.020;6.598;2023-11-21T04:14:06;8.90;99.90
52187;DHT22;38161;53.020;6.598;2023-11-21T04:16:32;9.00;99.90
52187;DHT22;38161;53.020;6.598;2023-11-21T04:18:57;8.90;99.90
52187;DHT22;38161;53.020;6.598;2023-11-21T04:21:23;8.90;99.90
52187;DHT22;38161;53.020;6.598;2023-11-21T04:23:49;9.00;99.90
52187;DHT22;38161;53.020;6.598;2023-11-21T04:26:16;9.00;99.90
52187;DHT22;38161;53.020;6.598;2023-11-21T04:28:42;9.00;99.90
52187;DHT22;38161;53.020;6.598;2023-11-21T04:31:07;9.00;99.90
52187;DHT22;38161;53.020;6.598;2023-11-21T04:33:39;8.90;99.90
52187;DHT22;38161;53.020;6.598;2023-11-21T04:36:05;8.90;99.90
52187;DHT22;38161;53.020;6.598;2023-11-21T04:38:31;8.90;99.90
52187;DHT22;38161;53.020;6.598;2023-11-21T04:41:01;8.90;99.90
52187;DHT22;38161;53.020;6.598;2023-11-21T04:43:26;8.90;99.90
52187;DHT22;38161;53.020;6.598;2023-11-21T04:45:52;8.90;99.90
52187;DHT22;38161;53.020;6.598;2023-11-21T04:48:18;8.90;99.90
52187;DHT22;38161;53.020;6.598;2023-11-21T04:50:45;8.90;99.90
52187;DHT22;38161;53.020;6.598;2023-11-21T04:53:11;8.90;99.90
52187;DHT22;38161;53.020;6.598;2023-11-21T04:55:42;8.90;99.90
52187;DHT22;38161;53.020;6.598;2023-11-21T04:58:08;8.90;99.90
52187;DHT22;38161;53.020;6.598;2023-11-21T05:00:34;8.90;99.90
52187;DHT22;38161;53.020;6.598;2023-11-21T05:03:00;8.90;99.90
52187;DHT22;38161;53.020;6.598;2023-11-21T05:05:29;8.90;99.90
52187;DHT22;38161;53.020;6.598;2023-11-21T05:07:58;8.90;99.90
52187;DHT22;38161;53.020;6.598;2023-11-21T05:10:24;8.90;99.90
52187;DHT22;38161;53.020;6.598;2023-11-21T05:12:50;8.90;99.90
52187;DHT22;38161;53.020;6.598;2023-11-21T05:15:16;8.90;99.90
52187;DHT22;38161;53.020;6.598;2023-11-21T05:17:45;8.90;99.90
52187;DHT22;38161;53.020;6.598;2023-11-21T05:20:12;8.90;99.90
52187;DHT22;38161;53.020;6.598;2023-11-21T05:22:40;8.90;99.90
52187;DHT22;38161;53.020;6.598;2023-11-21T05:25:06;9.00;99.90
52187;DHT22;38161;53.020;6.598;2023-11-21T05:27:36;9.00;99.90
52187;DHT22;38161;53.020;6.598;2023-11-21T05:30:03;9.00;99.90
52187;DHT22;38161;53.020;6.598;2023-11-21T05:32:31;9.00;99.90
52187;DHT22;38161;53.020;6.598;2023-11-21T05:34:57;9.00;99.90
52187;DHT22;38161;53.020;6.598;2023-11-21T05:37:30;9.00;99.90
52187;DHT22;38161;53.020;6.598;2023-11-21T05:39:56;9.00;99.90
52187;DHT22;38161;53.020;6.598;2023-11-21T05:42:22;9.00;99.90
52187;DHT22;38161;53.020;6.598;2023-11-21T05:44:49;9.00;99.90
52187;DHT22;38161;53.020;6.598;2023-11-21T05:47:15;9.00;99.90
52187;DHT22;38161;53.020;6.598;2023-11-21T05:49:41;9.00;99.90
52187;DHT22;38161;53.020;6.598;2023-11-21T05:52:06;9.00;99.90
52187;DHT22;38161;53.020;6.598;2023-11-21T05:54:32;9.00;99.90
52187;DHT22;38161;53.020;6.598;2023-11-21T05:56:59;9.00;99.90
52187;DHT22;38161;53.020;6.598;2023-11-21T05:59:25;9.00;99.90
52187;DHT22;38161;53.020;6.598;2023-11-21T06:01:51;9.00;99.90
52187;DHT22;38161;53.020;6.598;2023-11-21T06:04:17;9.00;99.90
52187;DHT22;38161;53.020;6.598;2023-11-21T06:06:44;9.00;99.90
52187;DHT22;38161;53.020;6.598;2023-11-21T06:09:10;9.00;99.90
52187;DHT22;38161;53.020;6.598;2023-11-21T06:11:37;9.00;99.90
52187;DHT22;38161;53.020;6.598;2023-11-21T06:14:03;9.00;99.90
52187;DHT22;38161;53.020;6.598;2023-11-21T06:16:29;9.00;99.90
52187;DHT22;38161;53.020;6.598;2023-11-21T06:18:54;9.00;99.90
52187;DHT22;38161;53.020;6.598;2023-11-21T06:21:20;9.00;99.90
52187;DHT22;38161;53.020;6.598;2023-11-21T06:23:46;9.00;99.90
52187;DHT22;38161;53.020;6.598;2023-11-21T06:26:12;9.00;99.90
52187;DHT22;38161;53.020;6.598;2023-11-21T06:28:40;9.00;99.90
52187;DHT22;38161;53.020;6.598;2023-11-21T06:31:06;9.00;99.90
52187;DHT22;38161;53.020;6.598;2023-11-21T06:33:33;9.00;99.90
52187;DHT22;38161;53.020;6.598;2023-11-21T06:35:59;9.00;99.90
52187;DHT22;38161;53.020;6.598;2023-11-21T06:38:25;8.90;99.90
52187;DHT22;38161;53.020;6.598;2023-11-21T06:40:53;9.00;99.90
52187;DHT22;38161;53.020;6.598;2023-11-21T06:43:26;9.00;99.90
52187;DHT22;38161;53.020;6.598;2023-11-21T06:45:52;8.90;99.90
52187;DHT22;38161;53.020;6.598;2023-11-21T06:48:20;8.90;99.90
52187;DHT22;38161;53.020;6.598;2023-11-21T06:50:46;8.90;99.90
52187;DHT22;38161;53.020;6.598;2023-11-21T06:53:12;8.90;99.90
52187;DHT22;38161;53.020;6.598;2023-11-21T06:55:38;8.90;99.90
52187;DHT22;38161;53.020;6.598;2023-11-21T06:58:04;8.90;99.90
52187;DHT22;38161;53.020;6.598;2023-11-21T07:00:30;8.90;99.90
52187;DHT22;38161;53.020;6.598;2023-11-21T07:02:56;8.90;99.90
52187;DHT22;38161;53.020;6.598;2023-11-21T07:05:23;8.90;99.90
52187;DHT22;38161;53.020;6.598;2023-11-21T07:07:49;8.90;99.90
52187;DHT22;38161;53.020;6.598;2023-11-21T07:10:16;8.90;99.90
52187;DHT22;38161;53.020;6.598;2023-11-21T07:12:43;8.90;99.90
52187;DHT22;38161;53.020;6.598;2023-11-21T07:15:09;8.90;99.90
52187;DHT22;38161;53.020;6.598;2023-11-21T07:17:36;8.90;99.90
52187;DHT22;38161;53.020;6.598;2023-11-21T07:20:03;8.90;99.90
52187;DHT22;38161;53.020;6.598;2023-11-21T07:22:29;8.90;99.90
52187;DHT22;38161;53.020;6.598;2023-11-21T07:24:55;9.00;99.90
52187;DHT22;38161;53.020;6.598;2023-11-21T07:27:24;8.90;99.90
52187;DHT22;38161;53.020;6.598;2023-11-21T07:29:50;9.00;99.90
52187;DHT22;38161;53.020;6.598;2023-11-21T07:32:16;9.00;99.90
52187;DHT22;38161;53.020;6.598;2023-11-21T07:34:42;9.00;99.90
52187;DHT22;38161;53.020;6.598;2023-11-21T07:37:08;8.90;99.90
52187;DHT22;38161;53.020;6.598;2023-11-21T07:39:36;9.00;99.90
52187;DHT22;38161;53.020;6.598;2023-11-21T07:42:03;8.90;99.90
52187;DHT22;38161;53.020;6.598;2023-11-21T07:44:30;8.90;99.90
52187;DHT22;38161;53.020;6.598;2023-11-21T07:46:56;8.90;99.90
52187;DHT22;38161;53.020;6.598;2023-11-21T07:49:25;8.90;99.90
52187;DHT22;38161;53.020;6.598;2023-11-21T07:51:52;8.90;99.90
52187;DHT22;38161;53.020;6.598;2023-11-21T07:54:18;8.90;99.90
52187;DHT22;38161;53.020;6.598;2023-11-21T07:56:44;8.90;99.90
52187;DHT22;38161;53.020;6.598;2023-11-21T07:59:10;8.90;99.90
52187;DHT22;38161;53.020;6.598;2023-11-21T08:01:36;8.90;99.90
52187;DHT22;38161;53.020;6.598;2023-11-21T08:04:02;8.90;99.90
52187;DHT22;38161;53.020;6.598;2023-11-21T08:06:32;8.80;99.90
52187;DHT22;38161;53.020;6.598;2023-11-21T08:08:58;8.80;99.90
52187;DHT22;38161;53.020;6.598;2023-11-21T08:11:25;8.80;99.90
52187;DHT22;38161;53.020;6.598;2023-11-21T08:13:56;8.80;99.90
52187;DHT22;38161;53.020;6.598;2023-11-21T08:16:23;8.80;99.90
52187;DHT22;38161;53.020;6.598;2023-11-21T08:18:49;8.80;99.90
52187;DHT22;38161;53.020;6.598;2023-11-21T08:21:16;8.80;99.90
52187;DHT22;38161;53.020;6.598;2023-11-21T08:23:42;8.80;99.90
52187;DHT22;38161;53.020;6.598;2023-11-21T08:26:09;8.80;99.90
52187;DHT22;38161;53.020;6.598;2023-11-21T08:28:35;8.80;99.90
52187;DHT22;38161;53.020;6.598;2023-11-21T08:31:01;8.70;99.90
52187;DHT22;38161;53.020;6.598;2023-11-21T08:33:27;8.80;99.90
52187;DHT22;38161;53.020;6.598;2023-11-21T08:35:53;8.80;99.90
52187;DHT22;38161;53.020;6.598;2023-11-21T08:38:19;8.80;99.90
52187;DHT22;38161;53.020;6.598;2023-11-21T08:40:44;8.80;99.90
52187;DHT22;38161;53.020;6.598;2023-11-21T08:43:11;8.70;99.90
52187;DHT22;38161;53.020;6.598;2023-11-21T08:45:39;8.70;99.90
52187;DHT22;38161;53.020;6.598;2023-11-21T08:48:05;8.70;99.90
52187;DHT22;38161;53.020;6.598;2023-11-21T08:50:31;8.70;99.90
52187;DHT22;38161;53.020;6.598;2023-11-21T08:52:57;8.70;99.90
52187;DHT22;38161;53.020;6.598;2023-11-21T08:55:23;8.60;99.90
52187;DHT22;38161;53.020;6.598;2023-11-21T08:57:49;8.60;99.90
52187;DHT22;38161;53.020;6.598;2023-11-21T09:00:15;8.60;99.90
52187;DHT22;38161;53.020;6.598;2023-11-21T09:02:43;8.60;99.90
52187;DHT22;38161;53.020;6.598;2023-11-21T09:05:10;8.60;99.90
52187;DHT22;38161;53.020;6.598;2023-11-21T09:07:39;8.60;99.90
52187;DHT22;38161;53.020;6.598;2023-11-21T09:10:06;8.60;99.90
52187;DHT22;38161;53.020;6.598;2023-11-21T09:12:38;8.60;99.90
52187;DHT22;38161;53.020;6.598;2023-11-21T09:15:05;8.60;99.90
52187;DHT22;38161;53.020;6.598;2023-11-21T09:17:32;8.60;99.90
52187;DHT22;38161;53.020;6.598;2023-11-21T09:20:00;8.50;99.90
52187;DHT22;38161;53.020;6.598;2023-11-21T09:22:26;8.50;99.90
52187;DHT22;38161;53.020;6.598;2023-11-21T09:24:55;8.50;99.90
52187;DHT22;38161;53.020;6.598;2023-11-21T09:27:23;8.50;99.90
52187;DHT22;38161;53.020;6.598;2023-11-21T09:29:49;8.50;99.90
52187;DHT22;38161;53.020;6.598;2023-11-21T09:32:15;8.50;99.90
52187;DHT22;38161;53.020;6.598;2023-11-21T09:34:42;8.50;99.90
52187;DHT22;38161;53.020;6.598;2023-11-21T09:37:08;8.40;99.90
52187;DHT22;38161;53.020;6.598;2023-11-21T09:39:34;8.50;99.90
52187;DHT22;38161;53.020;6.598;2023-11-21T09:44:36;8.40;99.90
52187;DHT22;38161;53.020;6.598;2023-11-21T09:47:05;8.40;99.90
52187;DHT22;38161;53.020;6.598;2023-11-21T09:49:36;8.40;99.90
52187;DHT22;38161;53.020;6.598;2023-11-21T09:52:02;8.40;99.90
52187;DHT22;38161;53.020;6.598;2023-11-21T09:54:30;8.40;99.90
52187;DHT22;38161;53.020;6.598;2023-11-21T09:57:01;8.40;99.90
52187;DHT22;38161;53.020;6.598;2023-11-21T09:59:30;8.40;99.90
52187;DHT22;38161;53.020;6.598;2023-11-21T10:01:59;8.40;99.90
52187;DHT22;38161;53.020;6.598;2023-11-21T10:04:25;8.40;99.90
52187;DHT22;38161;53.020;6.598;2023-11-21T10:06:52;8.40;99.90
52187;DHT22;38161;53.020;6.598;2023-11-21T10:09:19;8.40;99.90
52187;DHT22;38161;53.020;6.598;2023-11-21T10:11:47;8.40;99.90
52187;DHT22;38161;53.020;6.598;2023-11-21T10:14:18;8.40;99.90
52187;DHT22;38161;53.020;6.598;2023-11-21T10:16:45;8.40;99.90
52187;DHT22;38161;53.020;6.598;2023-11-21T10:19:13;8.30;99.90
52187;DHT22;38161;53.020;6.598;2023-11-21T10:21:39;8.40;99.90
52187;DHT22;38161;53.020;6.598;2023-11-21T10:24:06;8.40;99.90
52187;DHT22;38161;53.020;6.598;2023-11-21T10:26:33;8.40;99.90
52187;DHT22;38161;53.020;6.598;2023-11-21T10:29:01;8.40;99.90
52187;DHT22;38161;53.020;6.598;2023-11-21T10:31:32;8.40;99.90
52187;DHT22;38161;53.020;6.598;2023-11-21T10:34:19;8.40;99.90
52187;DHT22;38161;53.020;6.598;2023-11-21T10:36:46;8.40;99.90
52187;DHT22;38161;53.020;6.598;2023-11-21T10:39:19;8.40;99.90
52187;DHT22;38161;53.020;6.598;2023-11-21T10:41:46;8.50;99.90
52187;DHT22;38161;53.020;6.598;2023-11-21T10:44:16;8.50;99.90
52187;DHT22;38161;53.020;6.598;2023-11-21T10:46:54;8.50;99.90
52187;DHT22;38161;53.020;6.598;2023-11-21T10:49:26;8.60;99.90
52187;DHT22;38161;53.020;6.598;2023-11-21T10:51:54;8.60;99.90
52187;DHT22;38161;53.020;6.598;2023-11-21T10:54:20;8.50;99.90
52187;DHT22;38161;53.020;6.598;2023-11-21T10:56:49;8.50;99.90
52187;DHT22;38161;53.020;6.598;2023-11-21T10:59:17;8.50;99.90
52187;DHT22;38161;53.020;6.598;2023-11-21T11:01:47;8.50;99.90
52187;DHT22;38161;53.020;6.598;2023-11-21T11:04:18;8.60;99.90
52187;DHT22;38161;53.020;6.598;2023-11-21T11:06:52;8.60;99.90
52187;DHT22;38161;53.020;6.598;2023-11-21T11:09:20;8.60;99.90
52187;DHT22;38161;53.020;6.598;2023-11-21T11:11:46;8.60;99.90
52187;DHT22;38161;53.020;6.598;2023-11-21T11:14:13;8.60;99.90
52187;DHT22;38161;53.020;6.598;2023-11-21T11:16:40;8.60;99.90
52187;DHT22;38161;53.020;6.598;2023-11-21T11:19:07;8.60;99.90
52187;DHT22;38161;53.020;6.598;2023-11-21T11:26:58;8.70;99.90
52187;DHT22;38161;53.020;6.598;2023-11-21T11:29:39;8.70;99.90
52187;DHT22;38161;53.020;6.598;2023-11-21T11:34:46;8.80;99.90
52187;DHT22;38161;53.020;6.598;2023-11-21T11:37:26;8.70;99.90
52187;DHT22;38161;53.020;6.598;2023-11-21T11:39:52;8.70;99.90
52187;DHT22;38161;53.020;6.598;2023-11-21T11:42:21;8.70;99.90
52187;DHT22;38161;53.020;6.598;2023-11-21T11:44:50;8.70;99.90
52187;DHT22;38161;53.020;6.598;2023-11-21T11:47:29;8.70;99.90
52187;DHT22;38161;53.020;6.598;2023-11-21T11:50:10;8.70;99.90
52187;DHT22;38161;53.020;6.598;2023-11-21T11:52:46;8.60;99.90
52187;DHT22;38161;53.020;6.598;2023-11-21T11:55:15;8.70;99.90
52187;DHT22;38161;53.020;6.598;2023-11-21T11:57:44;8.60;99.90
52187;DHT22;38161;53.020;6.598;2023-11-21T12:02:48;8.60;99.90
52187;DHT22;38161;53.020;6.598;2023-11-21T12:05:17;8.60;99.90
52187;DHT22;38161;53.020;6.598;2023-11-21T12:07:53;8.60;99.90
52187;DHT22;38161;53.020;6.598;2023-11-21T12:10:32;8.60;99.90
52187;DHT22;38161;53.020;6.598;2023-11-21T12:13:01;8.60;99.90
52187;DHT22;38161;53.020;6.598;2023-11-21T12:15:27;8.60;99.90
52187;DHT22;38161;53.020;6.598;2023-11-21T12:17:57;8.50;99.90
52187;DHT22;38161;53.020;6.598;2023-11-21T12:20:28;8.60;99.90
52187;DHT22;38161;53.020;6.598;2023-11-21T12:22:57;8.60;99.90
52187;DHT22;38161;53.020;6.598;2023-11-21T12:25:29;8.60;99.90
52187;DHT22;38161;53.020;6.598;2023-11-21T12:27:58;8.70;99.90
52187;DHT22;38161;53.020;6.598;2023-11-21T12:30:30;8.70;99.90
52187;DHT22;38161;53.020;6.598;2023-11-21T12:33:01;8.70;99.90
52187;DHT22;38161;53.020;6.598;2023-11-21T12:35:29;8.60;99.90
52187;DHT22;38161;53.020;6.598;2023-11-21T12:37:56;8.60;99.90
52187;DHT22;38161;53.020;6.598;2023-11-21T12:40:26;8.60;99.90
52187;DHT22;38161;53.020;6.598;2023-11-21T12:42:57;8.70;99.90
52187;DHT22;38161;53.020;6.598;2023-11-21T12:45:28;8.70;99.90
52187;DHT22;38161;53.020;6.598;2023-11-21T12:48:02;8.70;99.90
52187;DHT22;38161;53.020;6.598;2023-11-21T12:50:34;8.70;99.90
52187;DHT22;38161;53.020;6.598;2023-11-21T12:53:04;8.60;99.90
52187;DHT22;38161;53.020;6.598;2023-11-21T12:55:34;8.80;99.90
52187;DHT22;38161;53.020;6.598;2023-11-21T12:58:05;8.60;99.90
52187;DHT22;38161;53.020;6.598;2023-11-21T13:00:43;8.60;99.90
52187;DHT22;38161;53.020;6.598;2023-11-21T13:03:10;8.60;99.90
52187;DHT22;38161;53.020;6.598;2023-11-21T13:05:39;8.60;99.90
52187;DHT22;38161;53.020;6.598;2023-11-21T13:08:07;8.60;99.90
52187;DHT22;38161;53.020;6.598;2023-11-21T13:10:36;8.50;99.90
52187;DHT22;38161;53.020;6.598;2023-11-21T13:15:31;8.50;99.90
52187;DHT22;38161;53.020;6.598;2023-11-21T13:17:58;8.40;99.90
52187;DHT22;38161;53.020;6.598;2023-11-21T13:20:25;8.40;99.90
52187;DHT22;38161;53.020;6.598;2023-11-21T13:22:53;8.30;99.90
52187;DHT22;38161;53.020;6.598;2023-11-21T13:25:30;8.30;99.90
52187;DHT22;38161;53.020;6.598;2023-11-21T13:27:57;8.30;99.90
52187;DHT22;38161;53.020;6.598;2023-11-21T13:30:27;8.30;99.90
52187;DHT22;38161;53.020;6.598;2023-11-21T13:33:08;8.30;99.90
52187;DHT22;38161;53.020;6.598;2023-11-21T13:35:39;8.30;99.90
52187;DHT22;38161;53.020;6.598;2023-11-21T13:38:10;8.30;99.90
52187;DHT22;38161;53.020;6.598;2023-11-21T13:40:38;8.30;99.90
52187;DHT22;38161;53.020;6.598;2023-11-21T13:43:13;8.30;99.90
52187;DHT22;38161;53.020;6.598;2023-11-21T13:45:40;8.30;99.90
52187;DHT22;38161;53.020;6.598;2023-11-21T13:48:08;8.40;99.90
52187;DHT22;38161;53.020;6.598;2023-11-21T13:50:43;8.40;99.90
52187;DHT22;38161;53.020;6.598;2023-11-21T13:53:15;8.40;99.90
52187;DHT22;38161;53.020;6.598;2023-11-21T13:55:52;8.40;99.90
52187;DHT22;38161;53.020;6.598;2023-11-21T13:58:25;8.40;99.90
52187;DHT22;38161;53.020;6.598;2023-11-21T14:01:07;8.40;99.90
52187;DHT22;38161;53.020;6.598;2023-11-21T14:03:50;8.30;99.90
52187;DHT22;38161;53.020;6.598;2023-11-21T14:06:23;8.30;99.90
52187;DHT22;38161;53.020;6.598;2023-11-21T14:08:57;8.30;99.90
52187;DHT22;38161;53.020;6.598;2023-11-21T14:11:23;8.20;99.90
52187;DHT22;38161;53.020;6.598;2023-11-21T14:13:51;8.20;99.90
52187;DHT22;38161;53.020;6.598;2023-11-21T14:16:17;8.20;99.90
52187;DHT22;38161;53.020;6.598;2023-11-21T14:18:44;8.20;99.90
52187;DHT22;38161;53.020;6.598;2023-11-21T14:21:27;8.20;99.90
52187;DHT22;38161;53.020;6.598;2023-11-21T14:23:53;8.20;99.90
52187;DHT22;38161;53.020;6.598;2023-11-21T14:26:21;8.20;99.90
52187;DHT22;38161;53.020;6.598;2023-11-21T14:28:46;8.20;99.90
52187;DHT22;38161;53.020;6.598;2023-11-21T14:31:14;8.10;99.90
52187;DHT22;38161;53.020;6.598;2023-11-21T14:33:45;8.20;99.90
52187;DHT22;38161;53.020;6.598;2023-11-21T14:36:11;8.20;99.90
52187;DHT22;38161;53.020;6.598;2023-11-21T14:38:37;8.10;99.90
52187;DHT22;38161;53.020;6.598;2023-11-21T14:41:05;8.10;99.90
52187;DHT22;38161;53.020;6.598;2023-11-21T14:43:37;8.10;99.90
52187;DHT22;38161;53.020;6.598;2023-11-21T14:46:04;8.10;99.90
52187;DHT22;38161;53.020;6.598;2023-11-21T14:48:35;8.00;99.90
52187;DHT22;38161;53.020;6.598;2023-11-21T14:51:21;8.00;99.90
52187;DHT22;38161;53.020;6.598;2023-11-21T14:53:58;8.00;99.90
52187;DHT22;38161;53.020;6.598;2023-11-21T14:56:35;8.00;99.90
52187;DHT22;38161;53.020;6.598;2023-11-21T14:59:03;8.00;99.90
52187;DHT22;38161;53.020;6.598;2023-11-21T15:01:34;8.00;99.90
52187;DHT22;38161;53.020;6.598;2023-11-21T15:04:19;7.90;99.90
52187;DHT22;38161;53.020;6.598;2023-11-21T15:07:05;7.90;99.90
52187;DHT22;38161;53.020;6.598;2023-11-21T15:09:32;7.90;99.90
52187;DHT22;38161;53.020;6.598;2023-11-21T15:12:00;7.90;99.90
52187;DHT22;38161;53.020;6.598;2023-11-21T15:14:47;7.90;99.90
52187;DHT22;38161;53.020;6.598;2023-11-21T15:17:16;7.90;99.90
52187;DHT22;38161;53.020;6.598;2023-11-21T15:20:03;7.80;99.90
52187;DHT22;38161;53.020;6.598;2023-11-21T15:22:32;7.90;99.90
52187;DHT22;38161;53.020;6.598;2023-11-21T15:24:58;7.80;99.90
52187;DHT22;38161;53.020;6.598;2023-11-21T15:27:25;7.80;99.90
52187;DHT22;38161;53.020;6.598;2023-11-21T15:29:53;7.80;99.90
52187;DHT22;38161;53.020;6.598;2023-11-21T15:32:19;7.80;99.90
52187;DHT22;38161;53.020;6.598;2023-11-21T15:34:45;7.70;99.90
52187;DHT22;38161;53.020;6.598;2023-11-21T15:37:12;7.70;99.90
52187;DHT22;38161;53.020;6.598;2023-11-21T15:39:39;7.70;99.90
52187;DHT22;38161;53.020;6.598;2023-11-21T15:42:05;7.70;99.90
52187;DHT22;38161;53.020;6.598;2023-11-21T15:44:33;7.60;99.90
52187;DHT22;38161;53.020;6.598;2023-11-21T15:46:59;7.60;99.90
52187;DHT22;38161;53.020;6.598;2023-11-21T15:49:25;7.60;99.90
52187;DHT22;38161;53.020;6.598;2023-11-21T15:51:53;7.50;99.90
52187;DHT22;38161;53.020;6.598;2023-11-21T15:54:22;7.50;99.90
52187;DHT22;38161;53.020;6.598;2023-11-21T15:56:54;7.50;99.90
52187;DHT22;38161;53.020;6.598;2023-11-21T15:59:25;7.50;99.90
52187;DHT22;38161;53.020;6.598;2023-11-21T16:01:58;7.40;99.90
52187;DHT22;38161;53.020;6.598;2023-11-21T16:04:24;7.40;99.90
52187;DHT22;38161;53.020;6.598;2023-11-21T16:06:53;7.30;99.90